Time;durP1;ratioP1;P1;durP2;ratioP2;P2;SDS_P1;SDS_P2;PMS_P1;PMS_P2;Temp;Humidity;BMP_temperature;BMP_pressure;BME280_temperature;BME280_humidity;BME280_pressure;Samples;Min_cycle;Max_cycle;Signal;HPM_P1;HPM_P2
2023/03/01 00:02:24;;;;;;;7.00;3.72;;;;;;;-6.03;78.85;100443.53;4932780;28;20057;-67
2023/03/01 00:04:55;;;;;;;5.28;3.78;;;;;;;-6.00;79.16;100445.38;4931706;28;20131;-60
2023/03/01 00:07:25;;;;;;;5.85;3.83;;;;;;;-6.21;79.25;100453.63;4931964;28;20052;-65
2023/03/01 00:09:57;;;;;;;7.60;4.43;;;;;;;-6.10;79.81;100460.13;4931599;28;20135;-60
2023/03/01 00:12:28;;;;;;;7.82;4.13;;;;;;;-5.96;78.86;100460.03;4927698;28;20844;-65
2023/03/01 00:14:58;;;;;;;8.35;4.65;;;;;;;-5.91;78.24;100445.84;4928955;28;20120;-59
2023/03/01 00:17:30;;;;;;;7.78;3.95;;;;;;;-5.85;79.19;100469.03;4914510;28;20826;-65
2023/03/01 00:20:00;;;;;;;7.45;3.67;;;;;;;-5.76;76.58;100469.53;4914069;28;20062;-61
2023/03/01 00:22:31;;;;;;;6.35;3.85;;;;;;;-5.67;76.44;100470.00;4929026;28;20047;-65
2023/03/01 00:25:03;;;;;;;6.75;3.80;;;;;;;-5.68;76.60;100473.34;4932254;28;20052;-61
2023/03/01 00:27:33;;;;;;;6.30;3.97;;;;;;;-5.75;76.21;100476.34;4932331;28;20052;-59
2023/03/01 00:30:04;;;;;;;5.13;3.28;;;;;;;-5.80;76.16;100482.88;4931818;28;20055;-61
2023/03/01 00:32:35;;;;;;;8.40;3.70;;;;;;;-5.40;75.88;100489.16;4928488;28;20049;-60
2023/03/01 00:35:06;;;;;;;7.45;4.35;;;;;;;-5.06;75.20;100496.84;4921787;28;20139;-62
2023/03/01 00:37:36;;;;;;;5.38;3.28;;;;;;;-4.82;72.92;100502.25;4925403;28;20053;-63
2023/03/01 00:40:10;;;;;;;4.75;3.35;;;;;;;-4.60;72.84;100516.94;4930809;28;20048;-61
2023/03/01 00:42:41;;;;;;;10.60;3.83;;;;;;;-4.84;72.04;100514.06;4921538;28;20048;-63
2023/03/01 00:45:13;;;;;;;7.00;4.20;;;;;;;-5.31;72.42;100505.78;4931078;28;20075;-66
2023/03/01 00:47:43;;;;;;;5.50;3.72;;;;;;;-5.39;72.79;100512.19;4931637;28;20043;-66
2023/03/01 00:50:14;;;;;;;6.75;3.53;;;;;;;-5.68;72.96;100473.34;4931903;28;20063;-61
2023/03/01 00:52:44;;;;;;;8.60;3.65;;;;;;;-5.49;73.04;100509.94;4931616;28;20798;-64
2023/03/01 00:55:17;;;;;;;4.93;3.60;;;;;;;-5.55;73.07;100499.44;4932285;28;20056;-64
2023/03/01 00:57:47;;;;;;;6.25;3.67;;;;;;;-5.12;72.52;100527.09;4938123;28;20891;-63
2023/03/01 01:00:21;;;;;;;6.68;4.03;;;;;;;-5.43;72.75;100530.63;4925574;28;20070;-67
2023/03/01 01:02:51;;;;;;;8.10;4.55;;;;;;;-5.36;72.89;100530.16;4935574;28;20221;-62
2023/03/01 01:05:22;;;;;;;6.78;4.25;;;;;;;-5.34;72.28;100531.13;4936940;28;20043;-63
2023/03/01 01:07:52;;;;;;;6.70;3.85;;;;;;;-5.68;71.95;100514.06;4936424;28;20040;-62
2023/03/01 01:10:24;;;;;;;6.93;3.65;;;;;;;-5.65;72.64;100544.78;4945521;28;20055;-65
2023/03/01 01:12:55;;;;;;;5.63;3.60;;;;;;;-5.70;72.48;100546.19;4929722;27;20045;-63
2023/03/01 01:15:26;;;;;;;6.78;3.70;;;;;;;-5.59;72.88;100553.53;4947284;27;20074;-61
2023/03/01 01:17:56;;;;;;;6.55;4.40;;;;;;;-5.55;71.19;100545.25;4933775;28;20477;-66
2023/03/01 01:20:26;;;;;;;4.90;3.53;;;;;;;-5.49;71.54;100545.56;4917112;28;20052;-64
2023/03/01 01:22:57;;;;;;;9.60;3.90;;;;;;;-5.64;71.31;100546.53;4917605;28;20058;-66
2023/03/01 01:25:29;;;;;;;5.93;3.97;;;;;;;-5.45;71.02;100552.59;4925348;28;20734;-66
2023/03/01 01:28:00;;;;;;;4.70;3.05;;;;;;;-5.20;70.13;100564.91;4918465;28;20052;-66
2023/03/01 01:30:30;;;;;;;8.02;4.28;;;;;;;-5.21;70.06;100547.91;4911039;28;20098;-67
2023/03/01 01:33:01;;;;;;;7.53;4.28;;;;;;;-5.17;68.72;100564.22;4924810;28;20059;-66
2023/03/01 01:35:34;;;;;;;7.97;3.85;;;;;;;-5.20;69.29;100560.69;4922644;28;20163;-61
2023/03/01 01:38:05;;;;;;;6.28;3.83;;;;;;;-5.13;68.45;100566.13;4911674;28;20059;-64
2023/03/01 01:40:44;;;;;;;9.07;4.22;;;;;;;-5.06;68.15;100563.09;4932033;28;20592;-67
2023/03/01 01:43:23;;;;;;;6.18;3.53;;;;;;;-4.82;67.98;100574.53;4921347;28;20791;-59
2023/03/01 01:45:58;;;;;;;8.75;3.63;;;;;;;-5.03;66.88;100527.56;4912755;28;20052;-65
2023/03/01 01:48:40;;;;;;;6.22;4.20;;;;;;;-5.34;66.84;100505.66;4920229;28;20056;-62
2023/03/01 01:51:14;;;;;;;5.57;3.60;;;;;;;-4.83;66.94;100588.06;4922857;28;20048;-61
2023/03/01 01:53:50;;;;;;;6.47;4.07;;;;;;;-4.67;67.44;100604.13;4932852;28;20048;-58
2023/03/01 01:56:24;;;;;;;7.97;4.60;;;;;;;-4.47;66.28;100592.38;4915833;28;20047;-65
2023/03/01 01:58:55;;;;;;;6.20;4.18;;;;;;;-4.62;65.36;100577.19;4918231;28;20048;-66
2023/03/01 02:01:26;;;;;;;7.50;4.30;;;;;;;-4.77;65.91;100573.09;4911235;28;20044;-60
2023/03/01 02:03:58;;;;;;;7.38;4.65;;;;;;;-4.57;66.33;100576.63;4920022;28;21497;-62
2023/03/01 02:06:32;;;;;;;9.73;4.35;;;;;;;-4.51;66.36;100581.16;4916411;28;20071;-64
2023/03/01 02:09:06;;;;;;;6.97;4.20;;;;;;;-4.46;65.97;100587.34;4922174;28;20048;-64
2023/03/01 02:11:39;;;;;;;6.45;4.13;;;;;;;-4.39;65.93;100581.75;4921647;28;20064;-67
2023/03/01 02:14:11;;;;;;;9.60;4.32;;;;;;;-4.44;65.09;100583.22;4919375;27;20054;-63
2023/03/01 02:16:48;;;;;;;6.78;3.97;;;;;;;-4.42;65.13;100566.31;4922419;28;20047;-64
2023/03/01 02:19:40;;;;;;;9.40;4.97;;;;;;;-4.14;65.41;100588.03;4896206;28;20102;-65
2023/03/01 02:22:31;;;;;;;9.15;4.75;;;;;;;-4.18;65.06;100551.28;4905428;28;20044;-63
2023/03/01 02:25:25;;;;;;;9.20;4.45;;;;;;;-4.09;63.23;100576.38;4911379;28;20062;-69
2023/03/01 02:28:09;;;;;;;9.82;4.30;;;;;;;-4.04;63.72;100589.31;4886209;28;20494;-63
2023/03/01 02:33:45;;;;;;;6.50;4.28;;;;;;;-3.95;63.19;100580.44;4911180;28;20067;-65
2023/03/01 02:36:22;;;;;;;7.70;4.13;;;;;;;-3.86;63.33;100584.22;4921408;28;20482;-67
2023/03/01 02:39:05;;;;;;;6.47;4.05;;;;;;;-4.35;62.91;100489.25;4907290;28;20054;-70
2023/03/01 02:41:47;;;;;;;6.97;4.18;;;;;;;-3.82;62.81;100575.91;4905381;28;20045;-66
2023/03/01 02:44:32;;;;;;;7.82;4.45;;;;;;;-3.78;62.54;100573.56;4911250;28;20066;-71
2023/03/01 02:47:17;;;;;;;8.05;3.97;;;;;;;-3.75;62.07;100575.38;4891305;28;20471;-69
2023/03/01 02:50:00;;;;;;;6.20;3.90;;;;;;;-3.62;61.27;100572.59;4909800;28;20059;-63
2023/03/01 02:52:52;;;;;;;7.10;4.20;;;;;;;-3.59;60.24;100572.72;4892954;28;20063;-64
2023/03/01 02:55:34;;;;;;;6.75;3.95;;;;;;;-3.44;60.27;100574.19;4891142;28;20048;-68
2023/03/01 02:58:17;;;;;;;7.53;4.13;;;;;;;-3.58;59.69;100571.91;4893245;28;20048;-67
2023/03/01 03:01:00;;;;;;;8.75;4.38;;;;;;;-3.51;60.07;100566.28;4898205;28;20064;-66
2023/03/01 03:03:46;;;;;;;6.95;3.90;;;;;;;-3.37;59.50;100566.00;4900648;28;20053;-67
2023/03/01 03:06:29;;;;;;;6.90;4.07;;;;;;;-3.69;59.84;100522.91;4897475;28;20052;-68
2023/03/01 03:09:10;;;;;;;6.75;3.67;;;;;;;-3.51;59.68;100573.06;4908630;28;20047;-64
2023/03/01 03:11:53;;;;;;;6.00;4.05;;;;;;;-3.53;60.39;100570.44;4890595;28;20833;-65
2023/03/01 03:14:35;;;;;;;5.47;3.60;;;;;;;-3.37;60.08;100550.69;4887979;28;20065;-65
2023/03/01 03:17:18;;;;;;;5.70;3.72;;;;;;;-3.31;59.31;100550.97;4909276;28;20391;-66
2023/03/01 03:20:04;;;;;;;4.32;3.13;;;;;;;-3.77;58.86;100477.41;4907850;28;20815;-66
2023/03/01 03:22:46;;;;;;;6.22;3.25;;;;;;;-3.20;58.47;100539.50;4895747;28;20061;-65
2023/03/01 03:25:29;;;;;;;5.88;3.53;;;;;;;-3.08;58.04;100545.16;4904733;28;20055;-66
2023/03/01 03:28:12;;;;;;;4.95;3.50;;;;;;;-2.89;57.27;100551.06;4908754;28;20056;-63
2023/03/01 03:30:54;;;;;;;5.13;3.58;;;;;;;-2.63;57.03;100540.22;4908000;28;20048;-64
2023/03/01 03:33:37;;;;;;;5.90;3.25;;;;;;;-2.27;56.67;100545.09;4907674;28;20047;-63
2023/03/01 03:36:22;;;;;;;5.05;2.80;;;;;;;-2.19;54.83;100543.72;4907416;28;20059;-66
2023/03/01 03:39:05;;;;;;;4.85;2.95;;;;;;;-2.13;55.71;100547.31;4903803;28;20063;-62
2023/03/01 03:41:48;;;;;;;5.18;3.28;;;;;;;-1.89;55.28;100532.91;4908662;28;20053;-65
2023/03/01 03:44:30;;;;;;;4.65;3.00;;;;;;;-1.95;54.98;100532.66;4909640;28;20098;-67
2023/03/01 03:47:10;;;;;;;4.13;2.88;;;;;;;-2.09;54.78;100521.03;4907126;28;20098;-64
2023/03/01 03:49:47;;;;;;;4.47;2.97;;;;;;;-2.06;54.48;100523.72;4893189;28;20048;-64
2023/03/01 03:52:29;;;;;;;5.78;3.35;;;;;;;-2.28;55.56;100507.50;4904813;28;20065;-62
2023/03/01 03:55:19;;;;;;;4.30;3.10;;;;;;;-2.33;55.49;100510.69;4896440;28;20044;-63
2023/03/01 03:57:56;;;;;;;3.58;2.85;;;;;;;-2.39;55.53;100498.53;4896587;28;20103;-65
2023/03/01 04:00:29;;;;;;;4.47;2.92;;;;;;;-2.65;55.96;100503.47;4907334;28;20054;-65
2023/03/01 04:03:07;;;;;;;6.15;3.20;;;;;;;-2.53;56.08;100499.69;4903901;28;20150;-65
2023/03/01 04:05:50;;;;;;;3.55;2.70;;;;;;;-2.45;55.83;100493.16;4892785;28;20148;-61
2023/03/01 04:08:34;;;;;;;4.38;3.20;;;;;;;-2.25;55.75;100512.72;4890168;28;20055;-66
2023/03/01 04:14:10;;;;;;;5.15;2.90;;;;;;;-2.30;54.65;100493.75;4893788;28;20044;-66
2023/03/01 04:16:52;;;;;;;5.03;3.40;;;;;;;-2.37;56.12;100504.59;4894872;28;20060;-62
2023/03/01 04:19:35;;;;;;;5.88;2.70;;;;;;;-2.33;56.02;100493.66;4892240;28;20055;-64
2023/03/01 04:22:18;;;;;;;4.72;3.13;;;;;;;-2.25;56.87;100482.03;4888537;28;20052;-62
2023/03/01 04:25:01;;;;;;;5.03;2.80;;;;;;;-2.27;56.08;100440.16;4896676;28;20053;-70
2023/03/01 04:27:42;;;;;;;4.40;2.80;;;;;;;-2.10;56.13;100465.50;4900491;28;20137;-65
2023/03/01 04:30:26;;;;;;;4.20;2.55;;;;;;;-1.92;55.37;100481.59;4891004;28;22666;-63
2023/03/01 04:33:09;;;;;;;4.18;2.95;;;;;;;-1.78;54.99;100475.25;4897836;28;20071;-65
2023/03/01 04:35:49;;;;;;;4.65;3.40;;;;;;;-1.60;55.31;100474.19;4896312;28;20075;-62
2023/03/01 04:38:29;;;;;;;4.50;3.10;;;;;;;-1.61;55.18;100472.44;4892041;28;20049;-66
2023/03/01 04:41:23;;;;;;;3.60;2.60;;;;;;;-1.54;54.73;100465.03;4891802;28;20056;-68
2023/03/01 04:44:06;;;;;;;4.35;2.90;;;;;;;-1.49;55.01;100462.63;4891560;28;20105;-67
2023/03/01 04:46:47;;;;;;;4.40;2.80;;;;;;;-1.33;55.37;100458.91;4892964;28;20048;-65
2023/03/01 04:49:25;;;;;;;4.63;2.80;;;;;;;-1.34;55.08;100427.28;4889437;28;20063;-65
2023/03/01 04:52:06;;;;;;;3.17;2.50;;;;;;;-1.22;54.27;100466.97;4905120;28;20048;-71
2023/03/01 04:54:48;;;;;;;6.10;2.90;;;;;;;-1.33;53.71;100464.91;4899250;28;20048;-64
2023/03/01 04:57:27;;;;;;;4.50;2.75;;;;;;;-1.39;55.87;100469.81;4889276;28;20051;-65
2023/03/01 05:00:19;;;;;;;4.03;2.65;;;;;;;-1.58;55.10;100472.56;4896537;28;20094;-62
2023/03/01 05:03:04;;;;;;;4.70;3.17;;;;;;;-1.87;55.86;100472.38;4892383;28;20596;-63
2023/03/01 05:06:07;;;;;;;5.75;3.03;;;;;;;-2.00;57.44;100480.41;4897802;28;20130;-64
2023/03/01 05:08:49;;;;;;;5.35;3.10;;;;;;;-2.06;56.92;100472.50;4897968;28;20052;-66
2023/03/01 05:11:35;;;;;;;4.70;2.90;;;;;;;-2.13;56.18;100475.63;4891028;28;20126;-68
2023/03/01 05:14:21;;;;;;;4.80;3.20;;;;;;;-2.20;57.72;100470.31;4890713;28;20044;-64
2023/03/01 05:17:04;;;;;;;6.00;3.10;;;;;;;-2.30;56.57;100462.19;4889673;28;20056;-67
2023/03/01 05:19:46;;;;;;;4.63;3.38;;;;;;;-2.36;56.59;100457.72;4894207;28;20085;-64
2023/03/01 05:22:29;;;;;;;6.90;3.25;;;;;;;-2.28;57.13;100456.31;4892900;28;20076;-64
2023/03/01 05:25:13;;;;;;;6.68;3.25;;;;;;;-2.20;57.83;100470.31;4892752;28;20049;-62
2023/03/01 05:27:56;;;;;;;4.55;3.08;;;;;;;-1.78;58.45;100469.25;4899751;28;20459;-68
2023/03/01 05:30:43;;;;;;;8.90;3.60;;;;;;;-1.75;57.44;100477.06;4892654;28;20055;-68
2023/03/01 05:33:25;;;;;;;5.28;3.20;;;;;;;-1.55;58.29;100462.41;4883775;28;20049;-68
2023/03/01 05:36:09;;;;;;;4.85;3.30;;;;;;;-1.42;57.07;100469.72;4890813;28;20056;-68
2023/03/01 05:38:51;;;;;;;5.07;3.35;;;;;;;-1.37;56.77;100473.31;4891387;28;20045;-69
2023/03/01 05:41:33;;;;;;;27.00;13.50;;;;;;;-1.21;57.59;100478.97;4895691;28;20156;-69
2023/03/01 05:44:15;;;;;;;6.95;4.10;;;;;;;-0.90;58.14;100471.50;4898123;28;21015;-65
2023/03/01 05:46:58;;;;;;;12.55;8.13;;;;;;;-0.69;56.79;100473.03;4905368;28;20741;-68
2023/03/01 05:49:41;;;;;;;28.35;15.25;;;;;;;-0.96;56.48;100483.25;4894906;28;20060;-65
2023/03/01 05:52:23;;;;;;;4.70;3.30;;;;;;;-0.87;56.92;100497.25;4893515;28;20048;-64
2023/03/01 05:54:58;;;;;;;4.55;3.20;;;;;;;-0.75;56.70;100490.78;4904227;28;20053;-63
2023/03/01 05:57:30;;;;;;;4.05;2.95;;;;;;;-0.87;56.20;100486.13;4906490;28;20129;-68
2023/03/01 06:00:01;;;;;;;6.22;3.30;;;;;;;-0.75;56.92;100493.34;4909427;28;20055;-67
2023/03/01 06:02:33;;;;;;;4.32;3.03;;;;;;;-0.65;56.57;100495.38;4908305;28;20150;-62
2023/03/01 06:05:04;;;;;;;5.55;2.88;;;;;;;-0.60;55.77;100495.53;4904839;28;20059;-66
2023/03/01 06:07:36;;;;;;;6.50;3.78;;;;;;;-0.54;56.68;100486.34;4907005;28;20049;-66
2023/03/01 06:10:08;;;;;;;7.97;4.40;;;;;;;-0.51;56.44;100501.84;4903885;28;20060;-67
2023/03/01 06:12:39;;;;;;;7.75;5.43;;;;;;;-0.50;56.74;100498.47;4903892;28;20041;-65
2023/03/01 06:15:11;;;;;;;9.45;6.38;;;;;;;-0.38;57.19;100502.22;4905993;28;20152;-64
2023/03/01 06:17:47;;;;;;;17.52;9.13;;;;;;;-0.67;56.54;100468.81;4909102;28;20052;-66
2023/03/01 06:20:20;;;;;;;10.55;5.90;;;;;;;-0.56;56.77;100493.13;4904207;28;20080;-63
2023/03/01 06:22:51;;;;;;;6.88;4.40;;;;;;;-0.48;57.92;100483.97;4905743;28;20053;-64
2023/03/01 06:25:26;;;;;;;18.92;10.95;;;;;;;-0.35;57.36;100497.19;4906659;28;20059;-65
2023/03/01 06:27:58;;;;;;;20.02;11.30;;;;;;;-0.34;56.96;100493.81;4903681;28;20055;-69
2023/03/01 06:30:29;;;;;;;18.05;9.70;;;;;;;-0.90;57.50;100409.03;4905537;28;20057;-60
2023/03/01 06:33:02;;;;;;;11.60;7.03;;;;;;;-0.54;56.73;100486.34;4910456;28;20064;-65
2023/03/01 06:35:33;;;;;;;8.48;5.07;;;;;;;-0.52;56.41;100505.25;4907703;28;20122;-65
2023/03/01 06:38:05;;;;;;;28.10;14.98;;;;;;;-0.51;56.81;100512.09;4905333;28;20523;-66
2023/03/01 06:40:36;;;;;;;10.50;4.85;;;;;;;-0.68;56.63;100513.25;4910213;28;20063;-67
2023/03/01 06:43:07;;;;;;;8.35;4.53;;;;;;;-0.91;56.74;100531.31;4910451;28;20052;-68
2023/03/01 06:45:38;;;;;;;9.18;4.82;;;;;;;-1.27;56.64;100494.13;4907069;28;20052;-61
2023/03/01 06:48:11;;;;;;;7.88;4.40;;;;;;;-1.31;56.40;100529.91;4907147;28;20053;-64
2023/03/01 06:50:41;;;;;;;9.30;4.90;;;;;;;-1.51;56.98;100525.78;4904968;28;20052;-63
2023/03/01 06:53:12;;;;;;;10.38;4.63;;;;;;;-1.62;57.79;100535.63;4904993;28;20052;-68
2023/03/01 06:55:43;;;;;;;9.90;5.43;;;;;;;-1.74;58.16;100538.59;4903599;28;20056;-63
2023/03/01 06:58:13;;;;;;;15.18;7.15;;;;;;;-1.85;59.05;100539.88;4906703;28;20475;-63
2023/03/01 07:00:44;;;;;;;15.65;6.55;;;;;;;-2.01;58.57;100543.53;4909986;28;20074;-65
2023/03/01 07:03:16;;;;;;;10.90;6.28;;;;;;;-2.11;59.25;100555.94;4907288;28;20060;-64
2023/03/01 07:05:46;;;;;;;12.38;7.15;;;;;;;-2.09;60.33;100549.19;4905558;28;20891;-67
2023/03/01 07:08:17;;;;;;;18.00;7.60;;;;;;;-2.36;59.87;100519.13;4908208;28;20052;-67
2023/03/01 07:10:48;;;;;;;12.60;6.68;;;;;;;-2.09;60.51;100560.31;4908610;28;20052;-62
2023/03/01 07:13:21;;;;;;;18.60;9.43;;;;;;;-2.02;61.08;100556.28;4904487;28;20044;-62
2023/03/01 07:15:51;;;;;;;10.73;6.47;;;;;;;-2.05;60.80;100556.16;4903969;28;20058;-65
2023/03/01 07:18:24;;;;;;;10.88;6.20;;;;;;;-2.17;61.46;100549.78;4908927;28;20711;-66
2023/03/01 07:20:54;;;;;;;11.32;6.10;;;;;;;-2.25;61.74;100561.38;4894503;28;20056;-64
2023/03/01 07:23:25;;;;;;;13.02;6.63;;;;;;;-2.39;61.88;100554.84;4912254;28;20044;-66
2023/03/01 07:25:56;;;;;;;11.70;6.18;;;;;;;-2.49;62.71;100557.84;4899780;28;20045;-67
2023/03/01 07:28:28;;;;;;;10.45;5.93;;;;;;;-3.13;63.32;100479.31;4900977;28;20772;-66
2023/03/01 07:31:03;;;;;;;10.52;6.43;;;;;;;-2.74;66.11;100572.19;4907405;28;20449;-63
2023/03/01 07:33:35;;;;;;;10.65;5.72;;;;;;;-2.88;67.91;100583.50;4894984;28;20050;-66
2023/03/01 07:36:07;;;;;;;9.60;5.50;;;;;;;-3.38;69.37;100520.84;4907924;28;20052;-65
2023/03/01 07:38:37;;;;;;;12.77;6.22;;;;;;;-3.00;70.37;100593.19;4903887;28;20054;-62
2023/03/01 07:41:11;;;;;;;11.25;6.07;;;;;;;-3.16;71.14;100592.53;4908794;28;20050;-63
2023/03/01 07:43:42;;;;;;;11.85;5.65;;;;;;;-3.27;71.99;100598.84;4903723;28;20550;-63
2023/03/01 07:46:13;;;;;;;14.15;6.80;;;;;;;-3.31;72.80;100607.19;4902027;28;20061;-64
2023/03/01 07:48:45;;;;;;;11.15;5.75;;;;;;;-3.51;73.34;100589.28;4900373;28;20537;-64
2023/03/01 07:51:16;;;;;;;7.50;4.68;;;;;;;-3.52;73.84;100607.97;4905177;28;20848;-61
2023/03/01 07:53:49;;;;;;;11.63;5.30;;;;;;;-3.58;74.24;100606.81;4898246;28;20059;-67
2023/03/01 07:56:21;;;;;;;8.43;5.22;;;;;;;-3.66;74.67;100609.00;4902725;28;20079;-66
2023/03/01 07:58:52;;;;;;;10.02;5.55;;;;;;;-3.64;75.21;100609.97;4902841;28;20059;-61
2023/03/01 08:05:17;;;;;;;24.27;9.02;;;;;;;-3.74;75.88;100610.34;4906947;28;20059;-66
2023/03/01 08:07:47;;;;;;;19.67;8.82;;;;;;;-3.84;76.19;100618.34;4896618;28;20404;-61
2023/03/01 08:10:30;;;;;;;14.32;7.28;;;;;;;-3.93;76.75;100618.81;4913929;28;20048;-62
2023/03/01 08:13:14;;;;;;;14.63;6.97;;;;;;;-4.01;77.33;100610.78;4896928;28;20139;-67
2023/03/01 08:15:49;;;;;;;9.25;5.90;;;;;;;-4.10;78.42;100615.44;4906860;28;20815;-64
2023/03/01 08:18:25;;;;;;;12.50;6.60;;;;;;;-4.39;78.62;100566.44;4898106;28;20056;-68
2023/03/01 08:21:00;;;;;;;11.07;6.30;;;;;;;-4.18;78.83;100616.75;4907956;28;20057;-62
2023/03/01 08:23:31;;;;;;;12.68;6.25;;;;;;;-4.31;79.19;100604.22;4893465;28;20071;-62
2023/03/01 08:26:11;;;;;;;12.45;6.43;;;;;;;-4.57;79.34;100557.88;4907186;28;20079;-68
2023/03/01 08:28:43;;;;;;;11.80;6.60;;;;;;;-4.30;79.42;100596.63;4895553;28;20111;-62
2023/03/01 08:31:17;;;;;;;14.75;6.40;;;;;;;-4.35;79.01;100609.13;4911422;28;20805;-63
2023/03/01 08:33:55;;;;;;;11.23;6.22;;;;;;;-4.52;79.07;100593.81;4900162;28;20048;-67
2023/03/01 08:36:30;;;;;;;;;;;;;;;-4.43;79.34;100610.44;4900788;28;20056;-62
2023/03/01 08:39:01;;;;;;;16.38;6.65;;;;;;;-4.49;79.67;100625.47;4914108;28;20380;-66
2023/03/01 08:41:32;;;;;;;15.30;7.32;;;;;;;-4.61;79.84;100619.75;4906632;28;20055;-60
2023/03/01 08:44:02;;;;;;;15.32;7.55;;;;;;;-4.60;80.10;100626.59;4904489;28;20102;-61
2023/03/01 08:46:35;;;;;;;16.08;7.50;;;;;;;-4.88;80.26;100592.06;4904308;28;20054;-67
2023/03/01 08:49:06;;;;;;;13.85;7.10;;;;;;;-4.71;80.89;100632.84;4908890;28;20059;-63
2023/03/01 08:51:41;;;;;;;18.45;8.50;;;;;;;-5.36;81.08;100522.50;4902976;28;20154;-68
2023/03/01 08:54:51;;;;;;;14.32;7.68;;;;;;;-4.70;81.54;100632.03;4897037;28;20048;-61
2023/03/01 08:57:45;;;;;;;14.05;7.00;;;;;;;-4.66;81.56;100636.50;4860885;28;20118;-66
2023/03/01 09:00:18;;;;;;;19.75;8.75;;;;;;;-4.58;81.61;100645.41;4901599;28;20064;-61
2023/03/01 09:02:56;;;;;;;21.42;9.20;;;;;;;-4.63;81.78;100634.09;4897281;28;20058;-63
2023/03/01 09:05:27;;;;;;;18.92;8.18;;;;;;;-4.84;81.69;100604.16;4905105;28;20052;-62
2023/03/01 09:08:02;;;;;;;17.42;8.50;;;;;;;-4.57;81.96;100649.69;4890268;28;20191;-64
2023/03/01 09:10:33;;;;;;;14.38;7.70;;;;;;;-4.54;82.25;100654.97;4899922;28;20121;-62
2023/03/01 09:13:04;;;;;;;13.23;7.68;;;;;;;-4.57;82.32;100652.22;4908059;28;20045;-61
2023/03/01 09:15:35;;;;;;;16.33;7.35;;;;;;;-4.66;82.13;100651.78;4904969;28;20055;-65
2023/03/01 09:18:10;;;;;;;12.23;7.45;;;;;;;-4.65;82.58;100653.53;4893716;28;20192;-65
2023/03/01 09:20:41;;;;;;;19.05;8.90;;;;;;;-4.56;82.91;100664.22;4914029;28;20155;-65
2023/03/01 09:23:13;;;;;;;16.23;8.35;;;;;;;-4.45;82.98;100673.25;4910844;28;20071;-66
2023/03/01 09:25:46;;;;;;;15.65;8.80;;;;;;;-4.44;82.91;100669.94;4919763;28;20064;-63
2023/03/01 09:28:20;;;;;;;27.55;11.05;;;;;;;-4.34;83.41;100677.25;4905329;28;20406;-63
2023/03/01 09:31:02;;;;;;;19.00;9.00;;;;;;;-4.54;83.25;100637.13;4896193;28;20052;-63
2023/03/01 09:33:34;;;;;;;38.13;14.35;;;;;;;-4.34;83.02;100677.25;4907091;28;20044;-61
2023/03/01 09:36:11;;;;;;;25.30;9.77;;;;;;;-4.52;82.76;100644.81;4910508;28;20527;-60
2023/03/01 09:38:44;;;;;;;42.55;14.15;;;;;;;-4.29;83.15;100680.03;4895855;28;20110;-60
2023/03/01 09:41:34;;;;;;;22.45;9.30;;;;;;;-4.26;83.23;100679.31;4872392;28;20171;-63
2023/03/01 09:44:13;;;;;;;14.52;7.55;;;;;;;-4.25;82.83;100686.16;4895665;28;20394;-61
2023/03/01 09:46:46;;;;;;;19.17;8.38;;;;;;;-4.26;82.98;100686.97;4902437;28;20048;-61
2023/03/01 09:49:26;;;;;;;20.23;8.60;;;;;;;-4.25;83.20;100692.13;4906356;28;20048;-61
2023/03/01 09:52:13;;;;;;;19.73;9.18;;;;;;;-4.25;82.96;100688.69;4905027;28;20415;-64
2023/03/01 09:54:58;;;;;;;13.80;6.78;;;;;;;-4.24;82.89;100687.88;4893460;28;20106;-66
2023/03/01 09:57:41;;;;;;;16.48;7.03;;;;;;;-4.31;82.70;100675.66;4899616;28;20048;-65
2023/03/01 10:00:30;;;;;;;14.10;7.15;;;;;;;-4.28;82.84;100686.00;4876140;28;20063;-66
2023/03/01 10:03:13;;;;;;;21.08;9.15;;;;;;;-4.35;82.67;100680.56;4896802;28;20067;-63
2023/03/01 10:05:52;;;;;;;18.67;8.80;;;;;;;-4.29;82.78;100689.31;4897086;28;20045;-61
2023/03/01 10:08:43;;;;;;;13.18;7.55;;;;;;;-4.29;82.91;100691.88;4900065;28;20133;-61
2023/03/01 10:11:28;;;;;;;11.27;6.32;;;;;;;-4.58;82.78;100655.59;4893778;28;20056;-63
2023/03/01 10:14:07;;;;;;;12.55;6.25;;;;;;;-4.37;82.75;100679.66;4901197;28;20254;-64
2023/03/01 10:16:45;;;;;;;13.30;6.95;;;;;;;-4.27;83.14;100692.84;4902533;28;20940;-60
2023/03/01 10:19:35;;;;;;;10.15;5.25;;;;;;;-4.27;82.94;100692.84;4897713;28;21786;-68
2023/03/01 10:22:17;;;;;;;9.88;5.53;;;;;;;-4.35;82.90;100695.88;4904632;28;20048;-61
2023/03/01 10:24:49;;;;;;;12.02;6.32;;;;;;;-4.58;83.23;100648.81;4899556;28;20111;-61
2023/03/01 10:27:25;;;;;;;10.50;5.90;;;;;;;-4.24;83.00;100698.09;4903459;28;20488;-65
2023/03/01 10:30:07;;;;;;;10.45;5.97;;;;;;;-4.23;82.69;100694.75;4903813;28;20044;-64
2023/03/01 10:32:38;;;;;;;13.43;7.10;;;;;;;-4.26;82.97;100689.50;4894769;28;20155;-67
2023/03/01 10:35:19;;;;;;;10.70;6.40;;;;;;;-4.24;82.55;100687.88;4908511;28;20167;-70
2023/03/01 10:38:00;;;;;;;10.25;5.78;;;;;;;-4.19;82.89;100692.44;4898034;28;20083;-66
2023/03/01 10:40:31;;;;;;;10.10;5.60;;;;;;;-4.21;82.34;100688.94;4893555;28;20630;-62
2023/03/01 10:43:06;;;;;;;9.48;5.53;;;;;;;-4.23;82.62;100690.53;4906894;28;20134;-61
2023/03/01 10:45:43;;;;;;;9.02;5.70;;;;;;;-4.29;82.74;100676.56;4902046;28;20057;-70
2023/03/01 10:48:16;;;;;;;8.52;5.40;;;;;;;-4.13;82.76;100691.84;4903397;28;20072;-64
2023/03/01 10:50:50;;;;;;;9.90;5.35;;;;;;;-4.36;82.31;100667.75;4905546;28;20053;-62
2023/03/01 10:53:31;;;;;;;10.88;5.50;;;;;;;-4.12;82.65;100698.69;4905209;28;20056;-62
2023/03/01 10:56:05;;;;;;;8.95;5.80;;;;;;;-4.04;82.72;100702.53;4894985;28;20619;-67
2023/03/01 10:58:40;;;;;;;8.73;5.47;;;;;;;-3.96;82.46;100701.22;4904180;28;20060;-67
2023/03/01 11:01:31;;;;;;;11.23;4.65;;;;;;;-3.93;81.83;100696.25;4900303;28;21024;-68
2023/03/01 11:04:13;;;;;;;11.85;5.32;;;;;;;-4.05;81.55;100690.56;4894676;28;20066;-65
2023/03/01 11:06:45;;;;;;;9.13;4.85;;;;;;;-3.96;82.00;100695.25;4893354;28;20048;-68
2023/03/01 11:09:20;;;;;;;9.23;5.20;;;;;;;-4.03;81.68;100709.38;4906810;28;20063;-64
2023/03/01 11:11:55;;;;;;;8.13;5.25;;;;;;;-4.13;81.89;100691.84;4899927;28;20059;-66
2023/03/01 11:14:30;;;;;;;10.27;5.40;;;;;;;-4.10;81.90;100707.31;4905170;28;20090;-64
2023/03/01 11:17:02;;;;;;;9.13;5.28;;;;;;;-4.30;82.35;100662.06;4894401;28;20132;-69
2023/03/01 11:19:38;;;;;;;11.00;5.07;;;;;;;-3.94;82.37;100699.63;4907433;28;20052;-66
2023/03/01 11:22:14;;;;;;;7.93;4.70;;;;;;;-3.82;82.39;100712.13;4896783;28;20060;-63
2023/03/01 11:24:48;;;;;;;10.23;4.82;;;;;;;-3.88;81.46;100698.16;4902993;28;20489;-67
2023/03/01 11:27:39;;;;;;;7.35;4.47;;;;;;;-3.81;81.41;100710.44;4901619;28;20131;-66
2023/03/01 11:30:22;;;;;;;9.30;4.40;;;;;;;-3.80;81.41;100712.19;4897878;28;20102;-67
2023/03/01 11:33:07;;;;;;;9.30;5.20;;;;;;;-4.02;81.25;100680.50;4895403;28;20056;-63
2023/03/01 11:35:49;;;;;;;9.98;5.10;;;;;;;-3.75;81.18;100710.72;4893863;28;20231;-65
2023/03/01 11:38:29;;;;;;;7.25;4.43;;;;;;;-3.81;81.04;100710.44;4896275;28;20121;-68
2023/03/01 11:41:07;;;;;;;7.32;4.40;;;;;;;-4.62;81.08;100577.19;4895201;28;20067;-70
2023/03/01 11:43:50;;;;;;;8.18;4.65;;;;;;;-3.92;80.96;100698.03;4902035;28;20063;-68
2023/03/01 11:46:59;;;;;;;12.75;5.47;;;;;;;-3.79;81.07;100704.59;4900495;28;20114;-67
2023/03/01 11:49:51;;;;;;;8.95;4.78;;;;;;;-3.83;81.24;100702.69;4895364;28;20478;-67
2023/03/01 11:52:32;;;;;;;9.27;5.00;;;;;;;-3.85;81.36;100703.41;4890186;28;20135;-65
2023/03/01 11:55:20;;;;;;;6.10;4.40;;;;;;;-3.76;81.24;100716.63;4895473;28;20045;-68
2023/03/01 11:58:11;;;;;;;9.20;4.55;;;;;;;-3.78;81.01;100719.09;4899743;28;21677;-68
2023/03/01 12:01:01;;;;;;;17.67;7.55;;;;;;;-3.76;80.80;100714.97;4891725;28;20053;-63
2023/03/01 12:03:35;;;;;;;;;;;;;;;-3.79;80.82;100719.06;4894373;28;20140;-63
2023/03/01 12:06:33;;;;;;;8.93;4.90;;;;;;;-3.85;80.84;100718.72;4910626;28;19928;-64
2023/03/01 12:09:45;;;;;;;8.98;5.65;;;;;;;-3.94;80.70;100721.72;4890143;28;20105;-68
2023/03/01 12:12:37;;;;;;;10.15;4.80;;;;;;;-3.91;80.79;100720.19;4897663;28;20131;-66
2023/03/01 12:15:42;;;;;;;7.88;6.00;;;;;;;-3.95;80.96;100725.94;4890936;28;20049;-66
2023/03/01 12:18:53;;;;;;;11.68;6.85;;;;;;;-4.08;81.16;100715.94;4905822;28;20052;-69
2023/03/01 12:21:41;;;;;;;10.20;5.30;;;;;;;-4.01;81.63;100710.34;4896884;28;20061;-66